Time,TemperatureF,DewpointF,PressureIn,WindDirection,WindDirectionDegrees,WindSpeedMPH,WindSpeedGustMPH,Humidity,HourlyPrecipIn,Conditions,Clouds,dailyrainin,SoftwareType,DateUTC
2013-02-07 00:00:00,52.2,35.6,27.43,NE,45,0.0,0.0,53,0.00,,,0.00,WUHU216HW,2013-02-07 07:00:00,
2013-02-07 00:05:00,52.2,35.6,27.43,NE,45,0.0,0.0,53,0.00,,,0.00,WUHU216HW,2013-02-07 07:05:00,
2013-02-07 00:30:00,50.8,35.1,27.44,ENE,68,0.0,0.0,55,0.00,,,0.00,WUHU216HW,2013-02-07 07:30:00,
2013-02-07 00:35:00,50.6,34.9,27.44,ENE,68,0.0,0.0,55,0.00,,,0.00,WUHU216HW,2013-02-07 07:35:00,
2013-02-07 01:00:00,50.4,35.7,27.44,ESE,113,0.0,0.0,57,0.00,,,0.00,WUHU216HW,2013-02-07 08:00:00,
2013-02-07 01:05:00,50.4,35.7,27.44,ESE,113,0.0,0.0,57,0.00,,,0.00,WUHU216HW,2013-02-07 08:05:00,
2013-02-07 01:30:00,50.0,35.8,27.45,NE,45,0.2,0.2,58,0.00,,,0.00,WUHU216HW,2013-02-07 08:30:00,
2013-02-07 01:35:00,50.0,35.8,27.44,NE,45,0.2,0.2,58,0.00,,,0.00,WUHU216HW,2013-02-07 08:35:00,
2013-02-07 01:40:00,50.0,35.8,27.44,NE,45,0.2,0.2,58,0.00,,,0.00,WUHU216HW,2013-02-07 08:40:00,
2013-02-07 02:00:00,49.9,35.6,27.45,NE,45,0.0,0.0,58,0.00,,,0.00,WUHU216HW,2013-02-07 09:00:00,
2013-02-07 02:05:00,49.9,35.6,27.45,NE,45,0.0,0.0,58,0.00,,,0.00,WUHU216HW,2013-02-07 09:05:00,
2013-02-07 02:30:00,48.6,35.5,27.45,NE,45,0.0,0.0,60,0.00,,,0.00,WUHU216HW,2013-02-07 09:30:00,
2013-02-07 02:35:00,48.6,35.5,27.45,NE,45,0.0,0.0,60,0.00,,,0.00,WUHU216HW,2013-02-07 09:35:00,
2013-02-07 03:00:00,47.9,35.1,27.45,North,0,0.0,0.0,61,0.00,,,0.00,WUHU216HW,2013-02-07 10:00:00,
2013-02-07 03:05:00,47.9,35.1,27.45,North,0,0.0,0.0,61,0.00,,,0.00,WUHU216HW,2013-02-07 10:05:00,
2013-02-07 03:10:00,47.9,35.1,27.45,North,0,0.0,0.0,61,0.00,,,0.00,WUHU216HW,2013-02-07 10:10:00,
2013-02-07 03:30:00,47.3,35.0,27.45,North,0,0.0,0.0,62,0.00,,,0.00,WUHU216HW,2013-02-07 10:30:00,
2013-02-07 03:35:00,47.3,35.0,27.45,North,0,0.0,0.0,62,0.00,,,0.00,WUHU216HW,2013-02-07 10:35:00,
2013-02-07 04:00:00,46.3,34.3,27.45,SE,135,0.0,0.0,63,0.00,,,0.00,WUHU216HW,2013-02-07 11:00:00,
2013-02-07 04:05:00,46.3,34.3,27.45,SE,135,0.0,0.0,63,0.00,,,0.00,WUHU216HW,2013-02-07 11:05:00,
2013-02-07 04:10:00,46.3,34.3,27.45,SE,135,0.0,0.0,63,0.00,,,0.00,WUHU216HW,2013-02-07 11:10:00,
2013-02-07 04:30:00,45.7,34.2,27.45,NW,315,0.0,0.0,64,0.00,,,0.00,WUHU216HW,2013-02-07 11:30:00,
2013-02-07 04:35:00,45.7,34.2,27.45,NW,315,0.0,0.0,64,0.00,,,0.00,WUHU216HW,2013-02-07 11:35:00,
2013-02-07 05:00:00,45.0,33.9,27.45,North,0,0.0,0.0,65,0.00,,,0.00,WUHU216HW,2013-02-07 12:00:00,
2013-02-07 05:05:00,45.0,33.9,27.45,North,0,0.0,0.0,65,0.00,,,0.00,WUHU216HW,2013-02-07 12:05:00,
2013-02-07 05:10:00,45.0,33.9,27.45,North,0,0.0,0.0,65,0.00,,,0.00,WUHU216HW,2013-02-07 12:10:00,
2013-02-07 05:30:00,44.1,33.9,27.45,NE,45,0.0,0.0,67,0.00,,,0.00,WUHU216HW,2013-02-07 12:30:00,
2013-02-07 05:35:00,43.9,33.7,27.45,NE,45,0.0,0.0,67,0.00,,,0.00,WUHU216HW,2013-02-07 12:35:00,
2013-02-07 05:40:00,43.9,33.7,27.45,NE,45,0.0,0.0,67,0.00,,,0.00,WUHU216HW,2013-02-07 12:40:00,
2013-02-07 06:00:00,43.2,33.4,27.46,NE,45,0.0,0.0,68,0.00,,,0.00,WUHU216HW,2013-02-07 13:00:00,
2013-02-07 06:05:00,43.4,33.6,27.46,NE,45,0.0,0.0,68,0.00,,,0.00,WUHU216HW,2013-02-07 13:05:00,
2013-02-07 06:30:00,42.7,33.3,27.46,NNW,338,0.0,0.0,69,0.00,,,0.00,WUHU216HW,2013-02-07 13:30:00,
2013-02-07 06:35:00,42.7,33.3,27.46,NNW,338,0.0,0.0,69,0.00,,,0.00,WUHU216HW,2013-02-07 13:35:00,
2013-02-07 07:00:00,42.1,33.1,27.47,NNW,338,0.0,0.0,70,0.00,,,0.00,WUHU216HW,2013-02-07 14:00:00,
2013-02-07 07:05:00,42.1,33.1,27.47,NNW,338,0.0,0.0,70,0.00,,,0.00,WUHU216HW,2013-02-07 14:05:00,
2013-02-07 07:10:00,42.1,33.1,27.47,NNW,338,0.0,0.0,70,0.00,,,0.00,WUHU216HW,2013-02-07 14:10:00,
2013-02-07 07:30:00,41.8,32.8,27.48,NNE,23,0.0,0.0,70,0.00,,,0.00,WUHU216HW,2013-02-07 14:30:00,
2013-02-07 07:35:00,41.8,32.8,27.48,NNE,23,0.0,0.0,70,0.00,,,0.00,WUHU216HW,2013-02-07 14:35:00,
2013-02-07 08:00:00,42.3,33.9,27.49,NE,45,0.0,0.0,72,0.00,,,0.00,WUHU216HW,2013-02-07 15:00:00,
2013-02-07 08:05:00,42.5,34.1,27.49,NE,45,0.0,0.0,72,0.00,,,0.00,WUHU216HW,2013-02-07 15:05:00,
2013-02-07 08:30:00,45.2,36.7,27.49,NNW,338,0.0,0.0,72,0.00,,,0.00,WUHU216HW,2013-02-07 15:30:00,
2013-02-07 08:35:00,45.4,36.9,27.49,NNW,338,0.0,0.0,72,0.00,,,0.00,WUHU216HW,2013-02-07 15:35:00,
2013-02-07 09:00:00,48.2,38.2,27.50,NNW,338,0.0,0.0,68,0.00,,,0.00,WUHU216HW,2013-02-07 16:00:00,
2013-02-07 09:05:00,48.2,38.2,27.50,NNW,338,0.0,0.0,68,0.00,,,0.00,WUHU216HW,2013-02-07 16:05:00,
2013-02-07 09:10:00,48.2,38.2,27.50,NNW,338,0.0,0.0,68,0.00,,,0.00,WUHU216HW,2013-02-07 16:10:00,
2013-02-07 09:30:00,51.3,39.5,27.50,WSW,248,0.7,0.7,64,0.00,,,0.00,WUHU216HW,2013-02-07 16:30:00,
2013-02-07 09:35:00,51.3,39.5,27.50,WSW,248,0.4,0.7,64,0.00,,,0.00,WUHU216HW,2013-02-07 16:35:00,
2013-02-07 10:00:00,54.0,40.0,27.50,SW,225,1.1,1.1,59,0.00,,,0.00,WUHU216HW,2013-02-07 17:00:00,
2013-02-07 10:05:00,54.0,40.0,27.50,SW,225,1.6,1.6,59,0.00,,,0.00,WUHU216HW,2013-02-07 17:05:00,
2013-02-07 10:30:00,57.2,40.8,27.49,SW,225,2.2,2.2,54,0.00,,,0.00,WUHU216HW,2013-02-07 17:30:00,
2013-02-07 10:35:00,57.2,40.8,27.49,SW,225,2.2,2.2,54,0.00,,,0.00,WUHU216HW,2013-02-07 17:35:00,
2013-02-07 11:00:00,59.6,41.5,27.48,South,180,2.9,2.9,51,0.00,,,0.00,WUHU216HW,2013-02-07 18:00:00,
2013-02-07 11:05:00,59.6,41.5,27.48,SW,225,1.1,2.9,51,0.00,,,0.00,WUHU216HW,2013-02-07 18:05:00,
2013-02-07 11:30:00,61.7,41.2,27.48,SSE,158,1.3,1.3,47,0.00,,,0.00,WUHU216HW,2013-02-07 18:30:00,
2013-02-07 11:35:00,61.6,41.0,27.48,SSE,158,1.8,1.8,47,0.00,,,0.00,WUHU216HW,2013-02-07 18:35:00,
2013-02-07 12:00:00,63.5,40.5,27.46,WSW,248,3.1,3.1,43,0.00,,,0.00,WUHU216HW,2013-02-07 19:00:00,
2013-02-07 12:05:00,63.5,40.5,27.46,WNW,293,3.4,3.4,43,0.00,,,0.00,WUHU216HW,2013-02-07 19:05:00,
2013-02-07 12:30:00,64.4,39.6,27.45,NNE,23,3.4,3.4,40,0.00,,,0.00,WUHU216HW,2013-02-07 19:30:00,
2013-02-07 12:35:00,64.4,39.6,27.45,NE,45,2.9,3.4,40,0.00,,,0.00,WUHU216HW,2013-02-07 19:35:00,
2013-02-07 12:40:00,64.4,39.6,27.45,NE,45,2.9,3.4,40,0.00,,,0.00,WUHU216HW,2013-02-07 19:40:00,
2013-02-07 13:00:00,65.5,39.2,27.43,WSW,248,2.5,2.5,38,0.00,,,0.00,WUHU216HW,2013-02-07 20:00:00,
2013-02-07 13:05:00,65.5,39.9,27.43,West,270,1.6,2.5,39,0.00,,,0.00,WUHU216HW,2013-02-07 20:05:00,
2013-02-07 13:10:00,65.5,39.9,27.43,West,270,1.6,2.5,39,0.00,,,0.00,WUHU216HW,2013-02-07 20:10:00,
2013-02-07 13:30:00,67.0,39.7,27.41,SSW,203,3.1,3.1,37,0.00,,,0.00,WUHU216HW,2013-02-07 20:30:00,
2013-02-07 13:35:00,67.0,39.7,27.41,SSW,203,3.1,3.1,37,0.00,,,0.00,WUHU216HW,2013-02-07 20:35:00,
2013-02-07 14:00:00,67.9,40.5,27.40,SSE,158,1.8,1.8,37,0.00,,,0.00,WUHU216HW,2013-02-07 21:00:00,
2013-02-07 14:05:00,67.9,40.5,27.40,SE,135,1.6,1.8,37,0.00,,,0.00,WUHU216HW,2013-02-07 21:05:00,
2013-02-07 14:10:00,67.9,40.5,27.40,SE,135,1.6,1.6,37,0.00,,,0.00,WUHU216HW,2013-02-07 21:10:00,
2013-02-07 14:30:00,68.8,39.8,27.40,WSW,248,2.5,2.5,35,0.00,,,0.00,WUHU216HW,2013-02-07 21:30:00,
2013-02-07 14:35:00,68.8,39.8,27.40,SW,225,1.8,2.5,35,0.00,,,0.00,WUHU216HW,2013-02-07 21:35:00,
2013-02-07 15:00:00,68.8,38.4,27.38,South,180,2.9,2.9,33,0.00,,,0.00,WUHU216HW,2013-02-07 22:00:00,
2013-02-07 15:05:00,68.8,38.4,27.38,SSW,203,2.2,2.9,33,0.00,,,0.00,WUHU216HW,2013-02-07 22:05:00,
2013-02-07 15:10:00,68.8,38.4,27.38,SSW,203,2.2,2.2,33,0.00,,,0.00,WUHU216HW,2013-02-07 22:10:00,
2013-02-07 15:30:00,69.8,38.5,27.38,SSE,158,1.8,1.8,32,0.00,,,0.00,WUHU216HW,2013-02-07 22:30:00,
2013-02-07 15:35:00,69.8,38.5,27.38,SW,225,2.5,2.5,32,0.00,,,0.00,WUHU216HW,2013-02-07 22:35:00,
2013-02-07 16:00:00,69.8,37.8,27.38,SW,225,1.8,1.8,31,0.00,,,0.00,WUHU216HW,2013-02-07 23:00:00,
2013-02-07 16:05:00,69.7,37.6,27.38,SSE,158,0.9,1.8,31,0.00,,,0.00,WUHU216HW,2013-02-07 23:05:00,
2013-02-07 16:30:00,69.8,36.1,27.38,WSW,248,2.5,2.5,29,0.00,,,0.00,WUHU216HW,2013-02-07 23:30:00,
2013-02-07 16:35:00,69.8,36.1,27.38,WSW,248,2.5,2.5,29,0.00,,,0.00,WUHU216HW,2013-02-07 23:35:00,
2013-02-07 16:40:00,69.8,36.1,27.38,WSW,248,2.5,2.5,29,0.00,,,0.00,WUHU216HW,2013-02-07 23:40:00,
2013-02-07 17:00:00,69.1,34.5,27.38,SSW,203,2.2,2.2,28,0.00,,,0.00,WUHU216HW,2013-02-08 00:00:00,
2013-02-07 17:05:00,69.1,34.5,27.38,SW,225,3.6,3.6,28,0.00,,,0.00,WUHU216HW,2013-02-08 00:05:00,
2013-02-07 17:30:00,68.6,33.9,27.38,WSW,248,1.6,1.6,28,0.00,,,0.00,WUHU216HW,2013-02-08 00:30:00,
2013-02-07 17:35:00,68.4,33.9,27.38,WSW,248,1.6,1.6,28,0.00,,,0.00,WUHU216HW,2013-02-08 00:35:00,
2013-02-07 18:00:00,66.8,34.5,27.37,WNW,293,1.1,1.1,30,0.00,,,0.00,WUHU216HW,2013-02-08 01:00:00,
2013-02-07 18:05:00,66.6,34.3,27.37,WNW,293,1.1,1.1,30,0.00,,,0.00,WUHU216HW,2013-02-08 01:05:00,
2013-02-07 18:30:00,65.3,34.7,27.37,NNW,338,0.0,0.0,32,0.00,,,0.00,WUHU216HW,2013-02-08 01:30:00,
2013-02-07 18:35:00,65.3,34.7,27.37,NNW,338,0.0,0.0,32,0.00,,,0.00,WUHU216HW,2013-02-08 01:35:00,
2013-02-07 19:00:00,63.0,34.0,27.37,WNW,293,0.0,0.0,34,0.00,,,0.00,WUHU216HW,2013-02-08 02:00:00,
2013-02-07 19:05:00,63.0,34.0,27.37,WNW,293,0.0,0.0,34,0.00,,,0.00,WUHU216HW,2013-02-08 02:05:00,
2013-02-07 19:30:00,60.5,34.6,27.38,NE,45,0.0,0.0,38,0.00,,,0.00,WUHU216HW,2013-02-08 02:30:00,
2013-02-07 19:35:00,60.5,34.6,27.38,NE,45,0.0,0.0,38,0.00,,,0.00,WUHU216HW,2013-02-08 02:35:00,
2013-02-07 20:00:00,58.1,33.9,27.38,ESE,113,0.0,0.0,40,0.00,,,0.00,WUHU216HW,2013-02-08 03:00:00,
2013-02-07 20:05:00,58.1,33.9,27.38,ESE,113,0.0,0.0,40,0.00,,,0.00,WUHU216HW,2013-02-08 03:05:00,
2013-02-07 20:30:00,57.2,33.7,27.37,NNE,23,0.0,0.0,41,0.00,,,0.00,WUHU216HW,2013-02-08 03:30:00,
2013-02-07 20:35:00,57.2,33.7,27.37,NNE,23,0.0,0.0,41,0.00,,,0.00,WUHU216HW,2013-02-08 03:35:00,
2013-02-07 21:00:00,56.2,33.8,27.37,NNE,23,0.0,0.0,43,0.00,,,0.00,WUHU216HW,2013-02-08 04:00:00,
2013-02-07 21:05:00,56.0,33.7,27.37,NNE,23,0.0,0.0,43,0.00,,,0.00,WUHU216HW,2013-02-08 04:05:00,
2013-02-07 21:30:00,53.5,33.0,27.37,NNE,23,0.0,0.0,46,0.00,,,0.00,WUHU216HW,2013-02-08 04:30:00,
2013-02-07 21:35:00,53.5,33.0,27.37,NNE,23,0.0,0.0,46,0.00,,,0.00,WUHU216HW,2013-02-08 04:35:00,
2013-02-07 22:00:00,52.6,32.2,27.37,North,0,0.0,0.0,46,0.00,,,0.00,WUHU216HW,2013-02-08 05:00:00,
2013-02-07 22:05:00,52.6,32.2,27.37,North,0,0.0,0.0,46,0.00,,,0.00,WUHU216HW,2013-02-08 05:05:00,
2013-02-07 22:30:00,51.3,32.2,27.37,North,0,0.0,0.0,48,0.00,,,0.00,WUHU216HW,2013-02-08 05:30:00,
2013-02-07 22:35:00,51.3,32.2,27.37,North,0,0.0,0.0,48,0.00,,,0.00,WUHU216HW,2013-02-08 05:35:00,
2013-02-07 22:59:00,49.7,32.3,27.37,North,0,0.0,0.0,51,0.00,,,0.00,WUHU216HW,2013-02-08 05:59:00,
2013-02-07 23:00:00,49.7,32.3,27.37,North,0,0.0,0.0,51,0.00,,,0.00,WUHU216HW,2013-02-08 06:00:00,
2013-02-07 23:30:00,49.1,32.2,27.36,ENE,68,0.0,0.0,52,0.00,,,0.00,WUHU216HW,2013-02-08 06:30:00,
2013-02-07 23:59:00,48.4,32.1,27.36,North,0,0.0,0.0,53,0.00,,,0.00,WUHU216HW,2013-02-08 06:59:00,